createdAt,value
2023-01-25T00:01:46.492Z,16.05
2023-01-25T00:04:21.195Z,15.03
2023-01-25T00:06:54.400Z,12.40
2023-01-25T00:09:28.316Z,13.80
2023-01-25T00:14:35.422Z,10.33
2023-01-25T00:17:08.490Z,10.90
2023-01-25T00:19:41.913Z,11.43
2023-01-25T00:22:14.782Z,10.85
2023-01-25T00:24:48.283Z,10.82
2023-01-25T00:27:21.227Z,12.20
2023-01-25T00:29:54.154Z,11.40
2023-01-25T00:32:37.553Z,12.25
2023-01-25T00:35:13.667Z,10.85
2023-01-25T00:37:50.797Z,10.18
2023-01-25T00:40:24.811Z,9.70
2023-01-25T00:42:57.728Z,8.73
2023-01-25T00:45:30.547Z,9.98
2023-01-25T00:48:04.355Z,9.58
2023-01-25T00:50:39.416Z,10.15
2023-01-25T00:53:12.322Z,11.00
2023-01-25T00:55:55.883Z,10.32
2023-01-25T00:58:30.299Z,9.43
2023-01-25T01:01:03.156Z,8.80
2023-01-25T01:03:36.108Z,9.40
2023-01-25T01:06:14.257Z,8.45
2023-01-25T01:08:48.160Z,9.00
2023-01-25T01:11:21.188Z,8.60
2023-01-25T01:13:54.245Z,7.70
2023-01-25T01:16:29.289Z,8.05
2023-01-25T01:21:35.000Z,6.58
2023-01-25T01:24:08.411Z,7.10
2023-01-25T01:26:42.214Z,7.00
2023-01-25T01:29:15.130Z,7.50
2023-01-25T01:31:50.163Z,6.10
2023-01-25T01:34:25.232Z,6.25
2023-01-25T01:36:58.673Z,8.00
2023-01-25T01:39:31.901Z,7.03
2023-01-25T01:42:05.368Z,5.45
2023-01-25T01:44:56.346Z,6.72
2023-01-25T01:47:44.790Z,6.20
2023-01-25T01:50:23.392Z,6.60
2023-01-25T01:52:56.618Z,6.08
2023-01-25T01:55:29.498Z,6.12
2023-01-25T01:58:03.974Z,5.90
2023-01-25T02:00:40.325Z,6.60
2023-01-25T02:03:14.399Z,6.28
2023-01-25T02:08:22.360Z,5.60
2023-01-25T02:10:55.413Z,6.60
2023-01-25T02:13:28.614Z,6.75
2023-01-25T02:16:01.549Z,7.17
2023-01-25T02:18:34.553Z,6.90
2023-01-25T02:21:08.580Z,7.08
2023-01-25T02:23:54.804Z,8.33
2023-01-25T02:26:27.748Z,9.10
2023-01-25T02:29:04.656Z,11.33
2023-01-25T02:31:38.853Z,8.13
2023-01-25T02:34:11.810Z,7.10
2023-01-25T02:36:45.571Z,7.15
2023-01-25T02:39:20.708Z,6.75
2023-01-25T02:41:55.087Z,5.75
2023-01-25T02:44:34.475Z,7.30
2023-01-25T02:47:08.953Z,5.90
2023-01-25T02:49:42.503Z,6.53
2023-01-25T02:52:15.498Z,6.22
2023-01-25T02:54:48.335Z,6.33
2023-01-25T02:57:23.178Z,6.80
2023-01-25T02:59:56.042Z,6.45
2023-01-25T03:05:02.081Z,6.87
2023-01-25T03:07:35.422Z,6.17
2023-01-25T03:10:09.712Z,6.33
2023-01-25T03:12:42.733Z,5.95
2023-01-25T03:15:16.141Z,5.70
2023-01-25T03:17:50.215Z,6.65
2023-01-25T03:20:24.471Z,7.22
2023-01-25T03:22:58.109Z,8.23
2023-01-25T03:25:31.681Z,11.50
2023-01-25T03:28:06.257Z,12.23
2023-01-25T03:30:39.857Z,13.03
2023-01-25T03:33:12.999Z,11.83
2023-01-25T03:35:46.075Z,11.55
2023-01-25T03:38:20.999Z,10.60
2023-01-25T03:43:27.587Z,11.30
2023-01-25T03:46:03.341Z,6.47
2023-01-25T03:48:36.614Z,6.70
2023-01-25T03:51:10.689Z,7.95
2023-01-25T03:53:43.898Z,7.53
2023-01-25T03:56:20.009Z,6.10
2023-01-25T03:58:57.711Z,13.13
2023-01-25T04:01:31.851Z,23.65
2023-01-25T04:04:05.234Z,15.23
2023-01-25T04:09:11.422Z,16.02
2023-01-25T04:11:45.932Z,16.45
2023-01-25T04:14:31.857Z,16.05
2023-01-25T04:16:56.732Z,13.40
2023-01-25T04:19:34.353Z,13.93
2023-01-25T04:22:09.268Z,12.25
2023-01-25T04:24:43.268Z,13.30
2023-01-25T04:27:16.051Z,11.20
2023-01-25T04:29:53.310Z,13.08
2023-01-25T04:32:26.544Z,12.60
2023-01-25T04:35:00.219Z,14.70
2023-01-25T04:37:34.123Z,15.68
2023-01-25T04:42:43.667Z,13.08
2023-01-25T04:45:16.880Z,12.68
2023-01-25T04:47:50.195Z,9.80
2023-01-25T04:52:56.072Z,10.35
2023-01-25T04:55:30.618Z,9.93
2023-01-25T04:58:05.643Z,10.00
2023-01-25T05:00:38.831Z,10.25
2023-01-25T05:03:11.950Z,10.75
2023-01-25T05:05:50.171Z,9.68
2023-01-25T05:08:26.539Z,12.43
2023-01-25T05:11:01.206Z,10.13
2023-01-25T05:13:45.481Z,10.55
2023-01-25T05:16:25.922Z,10.13
2023-01-25T05:18:59.014Z,9.50
2023-01-25T05:21:51.671Z,8.95
2023-01-25T05:24:24.698Z,13.08
2023-01-25T05:27:01.815Z,10.08
2023-01-25T05:29:40.299Z,9.13
2023-01-25T05:32:23.912Z,10.40
2023-01-25T05:34:56.672Z,9.78
2023-01-25T05:37:30.099Z,8.08
2023-01-25T05:40:11.765Z,12.43
2023-01-25T05:42:44.976Z,15.72
2023-01-25T05:45:22.215Z,16.87
2023-01-25T05:47:57.369Z,15.28
2023-01-25T05:50:30.471Z,12.45
2023-01-25T05:53:05.002Z,9.83
2023-01-25T05:55:38.932Z,10.82
2023-01-25T05:58:16.360Z,10.90
2023-01-25T06:00:49.296Z,10.70
2023-01-25T06:03:24.393Z,9.93
2023-01-25T06:06:03.132Z,12.78
2023-01-25T06:08:38.185Z,12.15
2023-01-25T06:11:14.568Z,10.23
2023-01-25T06:13:50.172Z,8.53
2023-01-25T06:16:23.433Z,7.67
2023-01-25T06:19:15.687Z,8.20
2023-01-25T06:21:56.278Z,8.78
2023-01-25T06:27:02.415Z,9.20
2023-01-25T06:29:35.321Z,9.38
2023-01-25T06:32:08.353Z,10.05
2023-01-25T06:34:41.989Z,10.00
2023-01-25T06:37:17.326Z,11.25
2023-01-25T06:39:50.469Z,12.55
2023-01-25T06:42:25.450Z,12.05
2023-01-25T06:44:58.868Z,13.38
2023-01-25T06:47:32.217Z,11.95
2023-01-25T06:50:05.597Z,14.20
2023-01-25T06:52:38.579Z,12.95
2023-01-25T06:55:13.398Z,11.48
2023-01-25T06:57:46.730Z,10.60
2023-01-25T07:00:20.374Z,12.28
2023-01-25T07:02:53.207Z,13.18
2023-01-25T07:05:26.752Z,19.42
2023-01-25T07:07:59.912Z,28.05
2023-01-25T07:10:33.912Z,28.57
2023-01-25T07:13:06.880Z,22.42
2023-01-25T07:15:39.858Z,17.00
2023-01-25T07:18:16.499Z,10.93
2023-01-25T07:20:47.503Z,9.43
2023-01-25T07:23:21.755Z,10.57
2023-01-25T07:25:54.414Z,9.88
2023-01-25T07:28:27.578Z,9.23
2023-01-25T07:31:07.983Z,9.88
2023-01-25T07:33:40.850Z,9.85
2023-01-25T07:36:14.036Z,8.60
2023-01-25T07:38:47.320Z,10.35
2023-01-25T07:41:20.349Z,15.98
2023-01-25T07:46:43.608Z,12.88
2023-01-25T07:49:16.381Z,9.73
2023-01-25T07:51:50.288Z,6.97
2023-01-25T07:54:23.012Z,7.87
2023-01-25T07:56:56.148Z,9.10
2023-01-25T07:59:31.532Z,8.80
2023-01-25T08:02:04.449Z,9.23
2023-01-25T08:04:37.557Z,7.53
2023-01-25T08:07:10.741Z,9.90
2023-01-25T08:09:44.626Z,10.45
2023-01-25T08:12:18.912Z,9.53
2023-01-25T08:17:23.931Z,10.55
2023-01-25T08:19:57.185Z,8.25
2023-01-25T08:22:30.492Z,7.87
2023-01-25T08:25:03.906Z,7.22
2023-01-25T08:27:37.184Z,8.00
2023-01-25T08:30:12.941Z,12.20
2023-01-25T08:32:45.990Z,11.25
2023-01-25T08:35:18.708Z,9.33
2023-01-25T08:37:51.780Z,8.95
2023-01-25T08:40:24.611Z,8.88
2023-01-25T08:42:58.522Z,9.40
2023-01-25T08:45:33.280Z,18.82
2023-01-25T08:48:06.581Z,8.90
2023-01-25T08:50:40.044Z,10.60
2023-01-25T08:53:12.768Z,11.63
2023-01-25T08:55:47.063Z,10.95
2023-01-25T08:58:22.589Z,8.08
2023-01-25T09:00:55.360Z,9.38
2023-01-25T09:03:28.589Z,11.78
2023-01-25T09:06:01.451Z,19.40
2023-01-25T09:08:35.293Z,13.25
2023-01-25T09:11:17.756Z,8.20
2023-01-25T09:13:51.617Z,13.25
2023-01-25T09:16:30.337Z,13.78
2023-01-25T09:19:05.755Z,10.20
2023-01-25T09:21:38.943Z,11.78
2023-01-25T09:24:11.845Z,14.03
2023-01-25T09:26:55.722Z,10.03
2023-01-25T09:29:19.874Z,9.05
2023-01-25T09:31:53.056Z,10.95
2023-01-25T09:34:38.946Z,10.93
2023-01-25T09:37:11.784Z,11.45
2023-01-25T09:39:45.202Z,10.05
2023-01-25T09:43:01.870Z,11.00
2023-01-25T09:45:38.630Z,10.63
2023-01-25T09:48:34.617Z,12.40
2023-01-25T09:51:24.109Z,10.55
2023-01-25T09:53:58.873Z,10.55
2023-01-25T09:56:39.448Z,11.53
2023-01-25T09:59:18.793Z,10.98
2023-01-25T10:01:58.865Z,12.37
2023-01-25T10:04:42.251Z,7.10
2023-01-25T10:07:32.475Z,7.47
2023-01-25T10:10:15.835Z,8.23
2023-01-25T10:12:49.025Z,7.47
2023-01-25T10:15:26.063Z,6.22
2023-01-25T10:18:15.521Z,8.95
2023-01-25T10:21:13.952Z,7.47
2023-01-25T10:24:17.866Z,9.15
2023-01-25T10:26:57.981Z,9.73
2023-01-25T10:29:36.000Z,6.90
2023-01-25T10:32:26.553Z,8.50
2023-01-25T10:35:02.339Z,8.23
2023-01-25T10:37:36.159Z,7.60
2023-01-25T10:40:20.705Z,8.03
2023-01-25T10:43:16.288Z,7.28
2023-01-25T10:45:50.498Z,8.78
2023-01-25T10:48:35.936Z,6.30
2023-01-25T10:51:11.697Z,9.20
2023-01-25T10:53:44.619Z,7.22
2023-01-25T10:56:25.088Z,7.20
2023-01-25T10:59:17.072Z,6.87
2023-01-25T11:01:49.899Z,7.37
2023-01-25T11:04:36.328Z,7.47
2023-01-25T11:07:14.177Z,12.28
2023-01-25T11:09:47.939Z,10.10
2023-01-25T11:12:22.406Z,8.55
2023-01-25T11:17:32.073Z,10.75
2023-01-25T11:20:21.961Z,9.10
2023-01-25T11:22:57.772Z,8.83
2023-01-25T11:25:34.166Z,7.78
2023-01-25T11:28:23.516Z,9.38
2023-01-25T11:30:56.415Z,7.20
2023-01-25T11:33:30.700Z,7.80
2023-01-25T11:36:30.873Z,11.08
2023-01-25T11:39:17.098Z,6.17
2023-01-25T11:42:09.719Z,6.62
2023-01-25T11:45:08.125Z,6.95
2023-01-25T11:47:57.657Z,9.28
2023-01-25T11:50:49.050Z,10.72
2023-01-25T11:53:35.951Z,7.60
2023-01-25T11:56:31.856Z,7.97
2023-01-25T11:59:30.532Z,9.65
2023-01-25T12:02:48.924Z,8.08
2023-01-25T12:05:29.200Z,5.72
2023-01-25T12:08:18.622Z,10.43
2023-01-25T12:11:07.790Z,7.35
2023-01-25T12:13:51.483Z,12.78
2023-01-25T12:16:49.909Z,9.88
2023-01-25T12:19:56.313Z,6.92
2023-01-25T12:22:51.614Z,6.87
2023-01-25T12:25:44.066Z,4.30
2023-01-25T12:28:41.763Z,6.53
2023-01-25T12:31:30.732Z,7.03
2023-01-25T12:34:30.074Z,7.00
2023-01-25T12:37:07.602Z,8.88
2023-01-25T12:39:44.779Z,7.78
2023-01-25T12:42:43.680Z,6.70
2023-01-25T12:45:23.872Z,4.90
2023-01-25T12:48:03.980Z,8.63
2023-01-25T12:50:43.035Z,6.08
2023-01-25T12:53:33.256Z,7.10
2023-01-25T12:56:09.843Z,7.70
2023-01-25T12:58:54.991Z,7.50
2023-01-25T13:01:44.214Z,9.18
2023-01-25T13:04:57.308Z,9.13
2023-01-25T13:08:09.311Z,7.87
2023-01-25T13:10:49.768Z,6.75
2023-01-25T13:13:30.104Z,4.70
2023-01-25T13:16:27.100Z,5.47
2023-01-25T13:19:00.646Z,7.20
2023-01-25T13:21:46.688Z,7.20
2023-01-25T13:24:25.744Z,8.53
2023-01-25T13:27:02.793Z,8.93
2023-01-25T13:29:43.144Z,12.07
2023-01-25T13:32:36.539Z,11.63
2023-01-25T13:35:14.271Z,13.32
2023-01-25T13:37:47.107Z,8.05
2023-01-25T13:40:37.535Z,7.30
2023-01-25T13:43:22.733Z,8.18
2023-01-25T13:45:55.985Z,11.35
2023-01-25T13:48:32.075Z,14.18
2023-01-25T13:51:08.674Z,14.10
2023-01-25T13:53:41.740Z,18.80
2023-01-25T13:56:36.004Z,12.03
2023-01-25T13:59:24.759Z,11.12
2023-01-25T14:01:58.304Z,9.25
2023-01-25T14:04:32.301Z,8.55
2023-01-25T14:07:07.846Z,8.68
2023-01-25T14:09:44.057Z,8.65
2023-01-25T14:12:30.410Z,9.75
2023-01-25T14:15:22.708Z,9.93
2023-01-25T14:18:19.408Z,7.85
2023-01-25T14:20:53.920Z,7.60
2023-01-25T14:23:34.378Z,8.75
2023-01-25T14:26:25.584Z,12.43
2023-01-25T14:29:01.985Z,21.85
2023-01-25T14:31:38.802Z,23.38
2023-01-25T14:34:19.034Z,41.55
2023-01-25T14:37:08.848Z,40.15
2023-01-25T14:39:42.323Z,24.72
2023-01-25T14:42:16.332Z,32.17
2023-01-25T14:44:49.947Z,23.02
2023-01-25T14:47:32.982Z,19.30
2023-01-25T14:50:40.521Z,17.98
2023-01-25T14:53:25.008Z,19.87
2023-01-25T14:55:57.852Z,21.48
2023-01-25T14:58:32.368Z,29.90
2023-01-25T15:01:06.021Z,32.88
2023-01-25T15:03:42.751Z,26.07
2023-01-25T15:06:16.075Z,20.02
2023-01-25T15:08:51.941Z,20.40
2023-01-25T15:11:38.539Z,16.15
2023-01-25T15:14:22.353Z,15.13
2023-01-25T15:16:56.457Z,32.50
2023-01-25T15:22:06.341Z,54.48
2023-01-25T15:27:12.958Z,69.27
2023-01-25T15:29:47.089Z,68.10
2023-01-25T15:34:55.614Z,32.00
2023-01-25T15:37:28.778Z,36.98
2023-01-25T15:40:01.966Z,32.53
2023-01-25T15:42:36.350Z,27.40
2023-01-25T15:47:46.698Z,43.48
2023-01-25T15:50:21.896Z,35.23
2023-01-25T15:52:54.921Z,38.83
2023-01-25T15:55:27.983Z,40.00
2023-01-25T15:58:01.203Z,36.70
2023-01-25T16:00:34.360Z,29.07
2023-01-25T16:03:08.122Z,25.20
2023-01-25T16:05:41.462Z,31.15
2023-01-25T16:08:19.617Z,45.67
2023-01-25T16:10:52.569Z,55.98
2023-01-25T16:13:26.424Z,43.05
2023-01-25T16:16:00.759Z,25.90
2023-01-25T16:18:33.909Z,49.30
2023-01-25T16:21:07.059Z,66.53
2023-01-25T16:23:40.683Z,80.97
2023-01-25T16:26:30.150Z,42.67
2023-01-25T16:29:03.111Z,78.20
2023-01-25T16:31:36.381Z,60.60
2023-01-25T16:34:09.716Z,99.52
2023-01-25T16:36:42.681Z,76.65
2023-01-25T16:39:28.445Z,86.95
2023-01-25T16:42:01.405Z,102.12
2023-01-25T16:44:34.956Z,123.80
2023-01-25T16:47:08.738Z,120.02
2023-01-25T16:49:42.279Z,132.52
2023-01-25T16:52:15.361Z,166.17
2023-01-25T16:54:48.587Z,203.32
2023-01-25T16:57:21.583Z,177.65
2023-01-25T16:59:54.501Z,154.40
2023-01-25T17:02:28.197Z,142.77
2023-01-25T17:05:01.422Z,129.32
2023-01-25T17:07:34.963Z,79.15
2023-01-25T17:10:09.709Z,121.40
2023-01-25T17:12:43.485Z,115.70
2023-01-25T17:15:18.249Z,126.33
2023-01-25T17:17:51.482Z,138.60
2023-01-25T17:20:24.344Z,129.38
2023-01-25T17:22:57.375Z,122.47
2023-01-25T17:25:31.920Z,130.15
2023-01-25T17:28:05.552Z,136.05
2023-01-25T17:30:41.910Z,132.43
2023-01-25T17:33:16.497Z,114.72
2023-01-25T17:35:49.500Z,139.00
2023-01-25T17:38:22.579Z,122.87
2023-01-25T17:40:55.826Z,105.87
2023-01-25T17:43:29.294Z,99.37
2023-01-25T17:46:15.240Z,121.82
2023-01-25T17:48:48.647Z,118.67
2023-01-25T17:51:24.992Z,127.00
2023-01-25T17:53:59.109Z,95.53
2023-01-25T17:56:32.633Z,99.83
2023-01-25T17:59:07.147Z,83.95
2023-01-25T18:01:43.184Z,64.25
2023-01-25T18:04:17.945Z,58.42
2023-01-25T18:06:51.412Z,69.55
2023-01-25T18:09:25.867Z,65.80
2023-01-25T18:14:31.712Z,47.75
2023-01-25T18:17:05.012Z,60.70
2023-01-25T18:19:38.627Z,58.98
2023-01-25T18:22:11.412Z,75.80
2023-01-25T18:24:45.424Z,46.68
2023-01-25T18:27:24.722Z,49.53
2023-01-25T18:30:21.004Z,53.52
2023-01-25T18:32:53.901Z,54.10
2023-01-25T18:35:26.971Z,50.38
2023-01-25T18:38:01.482Z,39.00
2023-01-25T18:40:34.471Z,30.23
2023-01-25T18:43:08.170Z,32.10
2023-01-25T18:45:41.953Z,45.48
2023-01-25T18:48:16.521Z,39.92
2023-01-25T18:50:49.421Z,35.40
2023-01-25T18:53:22.394Z,36.35
2023-01-25T18:56:11.624Z,38.28
2023-01-25T18:58:45.389Z,36.63
2023-01-25T19:01:21.667Z,32.17
2023-01-25T19:03:55.071Z,27.65
2023-01-25T19:06:28.018Z,25.97
2023-01-25T19:09:02.194Z,23.63
2023-01-25T19:14:07.665Z,27.58
2023-01-25T19:16:40.540Z,22.37
2023-01-25T19:19:13.381Z,23.47
2023-01-25T19:21:46.372Z,24.02
2023-01-25T19:24:21.060Z,26.30
2023-01-25T19:29:27.261Z,27.62
2023-01-25T19:32:00.542Z,24.18
2023-01-25T19:34:33.904Z,22.50
2023-01-25T19:37:07.426Z,19.02
2023-01-25T19:39:40.456Z,17.77
2023-01-25T19:42:13.538Z,21.50
2023-01-25T19:44:46.639Z,20.95
2023-01-25T19:47:19.377Z,21.40
2023-01-25T19:49:52.288Z,23.87
2023-01-25T19:52:25.675Z,27.00
2023-01-25T19:54:58.579Z,26.07
2023-01-25T19:57:33.019Z,26.80
2023-01-25T20:00:07.571Z,32.13
2023-01-25T20:02:40.924Z,30.68
2023-01-25T20:05:14.360Z,28.30
2023-01-25T20:07:47.251Z,29.80
2023-01-25T20:10:20.482Z,27.13
2023-01-25T20:12:53.431Z,27.32
2023-01-25T20:15:26.292Z,28.23
2023-01-25T20:17:59.712Z,34.75
2023-01-25T20:20:33.251Z,33.80
2023-01-25T20:23:06.075Z,35.50
2023-01-25T20:25:39.356Z,26.02
2023-01-25T20:28:12.570Z,24.40
2023-01-25T20:30:45.594Z,22.90
2023-01-25T20:33:19.052Z,23.40
2023-01-25T20:35:52.078Z,29.00
2023-01-25T20:38:24.958Z,26.12
2023-01-25T20:41:02.774Z,22.55
2023-01-25T20:43:36.026Z,18.82
2023-01-25T20:46:09.208Z,15.78
2023-01-25T20:48:42.041Z,14.33
2023-01-25T20:51:17.304Z,15.38
2023-01-25T20:53:54.170Z,13.72
2023-01-25T20:56:27.527Z,12.98
2023-01-25T20:59:00.289Z,13.60
2023-01-25T21:01:36.718Z,13.05
2023-01-25T21:04:11.875Z,10.60
2023-01-25T21:06:45.057Z,11.15
2023-01-25T21:09:19.397Z,15.03
2023-01-25T21:11:52.452Z,22.48
2023-01-25T21:14:25.183Z,15.40
2023-01-25T21:16:58.135Z,12.47
2023-01-25T21:19:31.105Z,11.55
2023-01-25T21:22:03.957Z,10.35
2023-01-25T21:24:36.950Z,9.60
2023-01-25T21:27:09.763Z,8.80
2023-01-25T21:29:42.711Z,8.90
2023-01-25T21:32:15.617Z,9.05
2023-01-25T21:34:48.661Z,9.03
2023-01-25T21:37:22.687Z,10.85
2023-01-25T21:39:55.837Z,13.03
2023-01-25T21:42:30.374Z,12.70
2023-01-25T21:45:21.454Z,12.05
2023-01-25T21:47:56.079Z,14.50
2023-01-25T21:50:46.641Z,15.10
2023-01-25T21:53:19.445Z,15.32
2023-01-25T21:55:58.579Z,15.10
2023-01-25T21:58:31.448Z,16.67
2023-01-25T22:01:05.048Z,14.35
2023-01-25T22:03:38.372Z,13.78
2023-01-25T22:06:11.145Z,8.95
2023-01-25T22:08:44.507Z,7.47
2023-01-25T22:11:17.306Z,6.77
2023-01-25T22:13:50.229Z,7.62
2023-01-25T22:16:23.180Z,8.35
2023-01-25T22:18:56.648Z,8.65
2023-01-25T22:21:33.005Z,9.40
2023-01-25T22:24:07.969Z,10.23
2023-01-25T22:27:28.088Z,9.10
2023-01-25T22:30:00.852Z,9.35
2023-01-25T22:32:33.956Z,10.33
2023-01-25T22:35:07.249Z,10.30
2023-01-25T22:37:40.091Z,11.05
2023-01-25T22:40:14.474Z,9.38
2023-01-25T22:42:47.827Z,8.83
2023-01-25T22:45:20.758Z,9.28
2023-01-25T22:47:53.860Z,8.83
2023-01-25T22:50:27.113Z,7.30
2023-01-25T22:52:59.967Z,7.60
2023-01-25T22:55:34.508Z,6.33
2023-01-25T22:58:07.401Z,6.20
2023-01-25T23:00:40.727Z,6.90
2023-01-25T23:03:13.504Z,6.85
2023-01-25T23:05:46.382Z,8.58
2023-01-25T23:08:19.206Z,7.87
2023-01-25T23:10:52.620Z,7.65
2023-01-25T23:13:25.465Z,7.30
2023-01-25T23:16:03.660Z,7.95
2023-01-25T23:18:53.710Z,8.18
2023-01-25T23:21:29.141Z,7.45
2023-01-25T23:24:03.329Z,9.35
2023-01-25T23:26:42.567Z,12.88
2023-01-25T23:29:16.138Z,12.53
2023-01-25T23:31:49.443Z,9.48
2023-01-25T23:34:22.176Z,7.50
2023-01-25T23:36:55.559Z,6.90
2023-01-25T23:39:28.255Z,6.95
2023-01-25T23:42:01.046Z,6.53
2023-01-25T23:44:33.890Z,8.13
2023-01-25T23:47:07.272Z,7.67
2023-01-25T23:49:40.361Z,7.03
2023-01-25T23:52:13.158Z,5.50
2023-01-25T23:54:45.956Z,6.62
2023-01-25T23:57:19.077Z,6.12
2023-01-25T23:59:51.919Z,5.30
